Onemo, Virginia
Current Conditions -  °F | °C
As of 2:35 PM on Thursday 30 Oct 2014 (Local Time) from KW75 Reporting Station
Clear Clear  
Wind Chill: 61°   Ceiling: Unl
Heat Index: 61°   Visibility: 10mi
Dew Point: 40°   Wind: 8mph
Humidity: 47%   Direction: 320°NW
Pressure: 30"   Gusts: NA
Location:  37.4°N, 76.27°W
Report Text: KW75 301835Z AUTO 32007KT 290V360 10SM CLR 16/05 A3000 RMK AO1 T01600047
Loading
Personal Weather Stations






























Interactive Weather Map
Tropical Storm Tracking
New forecast layout! Learn more

10-Day Weather Forecast

Advertisements
Track Severe Weather on mobile